Time;durP1;ratioP1;P1;durP2;ratioP2;P2;SDS_P1;SDS_P2;PMS_P1;PMS_P2;Temp;Humidity;BMP_temperature;BMP_pressure;BME280_temperature;BME280_humidity;BME280_pressure;Samples;Min_cycle;Max_cycle;Signal;HPM_P1;HPM_P2
2022/08/29 00:01:45;;;;;;;24.58;16.10;;;;;;;18.94;81.45;97573.31;10328202;28;20052;-56
2022/08/29 00:06:44;;;;;;;29.55;16.13;;;;;;;18.89;81.84;97574.41;10328968;28;20057;-56
2022/08/29 00:11:43;;;;;;;23.42;15.95;;;;;;;18.86;81.96;97569.28;10328568;28;20033;-57
2022/08/29 00:16:42;;;;;;;24.00;16.30;;;;;;;18.81;82.22;97566.81;10328515;28;20036;-57
2022/08/29 00:21:41;;;;;;;32.25;20.08;;;;;;;18.79;82.98;97568.66;10328245;28;20073;-57
2022/08/29 00:26:40;;;;;;;30.08;19.30;;;;;;;18.51;84.69;97556.47;10328170;28;20037;-57
2022/08/29 00:31:39;;;;;;;27.33;19.83;;;;;;;18.49;84.76;97574.06;10328428;28;20029;-57
2022/08/29 00:36:38;;;;;;;25.83;18.73;;;;;;;18.43;85.11;97562.91;10328895;28;20476;-57
2022/08/29 00:41:37;;;;;;;28.98;19.55;;;;;;;18.41;85.32;97568.25;10327818;28;20107;-57
2022/08/29 00:46:39;;;;;;;28.25;20.00;;;;;;;18.38;85.69;97561.28;10327842;28;20053;-56
2022/08/29 00:51:39;;;;;;;25.67;18.73;;;;;;;18.34;85.90;97564.97;10328125;28;20061;-56
2022/08/29 00:56:40;;;;;;;24.65;18.88;;;;;;;18.25;85.91;97561.81;10328233;28;20088;-56
2022/08/29 01:01:39;;;;;;;28.73;19.38;;;;;;;18.30;86.02;97573.00;10328198;28;20115;-57
2022/08/29 01:06:40;;;;;;;23.80;19.33;;;;;;;18.09;86.67;97551.81;10328230;28;20483;-56
2022/08/29 01:16:58;;;;;;;26.80;18.63;;;;;;;18.12;86.81;97567.47;10327593;28;20068;-56
2022/08/29 01:22:10;;;;;;;25.48;18.02;;;;;;;18.00;87.98;97572.28;10327645;28;20065;-57
2022/08/29 01:27:11;;;;;;;23.17;18.00;;;;;;;17.75;89.22;97560.81;10327823;28;20486;-57
2022/08/29 01:32:11;;;;;;;26.23;18.58;;;;;;;17.67;89.41;97569.84;10333013;28;20329;-56
2022/08/29 01:37:13;;;;;;;28.27;19.02;;;;;;;17.59;89.34;97566.59;10334840;28;20454;-57
2022/08/29 01:42:20;;;;;;;28.33;19.08;;;;;;;17.63;89.29;97574.31;10334767;28;20080;-56
2022/08/29 01:47:21;;;;;;;23.83;17.85;;;;;;;17.65;89.03;97569.88;10334054;28;20093;-56
2022/08/29 01:52:21;;;;;;;25.13;19.25;;;;;;;17.65;89.11;97566.41;10334370;28;20118;-56
2022/08/29 01:57:20;;;;;;;24.23;17.40;;;;;;;17.59;89.47;97556.09;10333646;28;20069;-56
2022/08/29 02:02:24;;;;;;;21.75;16.88;;;;;;;17.49;89.52;97561.63;10334220;28;20554;-56
2022/08/29 02:07:24;;;;;;;23.67;16.67;;;;;;;17.48;89.27;97564.31;10334137;28;20076;-56
2022/08/29 02:12:25;;;;;;;24.45;16.45;;;;;;;17.44;88.88;97568.81;10333042;28;20483;-56
2022/08/29 02:17:24;;;;;;;19.65;16.63;;;;;;;17.47;88.64;97567.84;10333363;28;20080;-56
2022/08/29 02:22:23;;;;;;;24.67;17.48;;;;;;;17.45;88.58;97565.28;10333529;28;20510;-56
2022/08/29 02:27:22;;;;;;;20.70;16.27;;;;;;;17.40;89.15;97571.56;10332562;28;20072;-56
2022/08/29 02:32:21;;;;;;;22.88;16.90;;;;;;;17.34;89.23;97572.63;10332431;28;20029;-56
2022/08/29 02:37:20;;;;;;;;;;;;;;;17.37;88.92;97576.91;10333384;28;20022;-56
2022/08/29 02:42:19;;;;;;;27.33;19.23;;;;;;;17.35;89.32;97585.72;10331183;28;19919;-56
2022/08/29 02:47:18;;;;;;;32.90;20.88;;;;;;;17.29;89.41;97575.38;10331608;28;20434;-56
2022/08/29 02:52:17;;;;;;;32.35;21.95;;;;;;;17.35;89.59;97583.09;10332580;28;20080;-56
2022/08/29 02:57:16;;;;;;;33.47;23.10;;;;;;;17.32;89.68;97583.16;10332771;28;20032;-56
2022/08/29 03:02:15;;;;;;;36.80;22.77;;;;;;;17.29;89.63;97595.53;10331780;28;20091;-56
2022/08/29 03:07:15;;;;;;;34.97;22.83;;;;;;;17.23;90.05;97596.53;10331202;28;20084;-57
2022/08/29 03:12:14;;;;;;;30.45;22.77;;;;;;;17.21;90.23;97592.25;10331046;28;20065;-56
2022/08/29 03:17:13;;;;;;;31.05;23.33;;;;;;;17.14;90.98;97599.44;10330825;28;20108;-56
2022/08/29 03:22:11;;;;;;;;;;;;;;;16.96;92.11;97608.72;10330785;28;20040;-56
2022/08/29 03:27:10;;;;;;;30.80;20.37;;;;;;;16.93;91.99;97612.31;10330773;28;20478;-56
2022/08/29 03:32:10;;;;;;;29.35;20.95;;;;;;;16.92;91.98;97605.31;10330318;28;20138;-56
2022/08/29 03:37:09;;;;;;;26.08;21.48;;;;;;;16.93;91.75;97609.69;10330134;28;20080;-56
2022/08/29 03:42:09;;;;;;;28.08;20.63;;;;;;;16.97;91.58;97614.81;10330771;28;20049;-56
2022/08/29 03:47:08;;;;;;;31.42;22.02;;;;;;;16.93;91.53;97625.41;10329216;28;20124;-56
2022/08/29 03:52:10;;;;;;;34.92;22.35;;;;;;;16.84;91.91;97628.28;10329141;28;20096;-56
2022/08/29 03:57:09;;;;;;;33.67;23.90;;;;;;;16.80;92.06;97636.25;10329058;28;20091;-56
2022/08/29 04:02:08;;;;;;;29.60;22.63;;;;;;;16.78;92.27;97636.28;10329118;28;20040;-56
2022/08/29 04:07:08;;;;;;;;;;;;;;;16.78;92.21;97640.66;10329137;28;20060;-56
2022/08/29 04:12:10;;;;;;;32.97;22.60;;;;;;;16.79;92.26;97651.09;10329780;28;19955;-56
2022/08/29 04:17:09;;;;;;;28.95;23.27;;;;;;;16.81;92.31;97646.69;10328478;28;20479;-56
2022/08/29 04:22:08;;;;;;;28.50;21.42;;;;;;;16.83;92.30;97644.91;10328707;28;20113;-56
2022/08/29 04:27:07;;;;;;;29.40;21.83;;;;;;;16.83;92.31;97634.41;10328968;28;20037;-56
2022/08/29 04:32:07;;;;;;;;;;;;;;;16.86;92.24;97642.22;10317828;28;20533;-56
2022/08/29 04:37:05;;;;;;;30.70;21.33;;;;;;;16.91;92.10;97645.56;10328901;28;19959;-56
2022/08/29 04:42:04;;;;;;;;;;;;;;;16.86;92.16;97650.06;10329052;28;20446;-56
2022/08/29 04:47:03;;;;;;;27.67;19.83;;;;;;;16.86;92.66;97654.44;10327245;28;19974;-56
2022/08/29 04:52:02;;;;;;;33.03;20.58;;;;;;;16.74;92.98;97660.84;10328250;28;20072;-56
2022/08/29 04:57:02;;;;;;;28.85;19.83;;;;;;;16.72;92.53;97666.16;10327860;28;20415;-56
2022/08/29 05:02:01;;;;;;;29.95;18.73;;;;;;;16.83;92.78;97665.88;10327731;28;20080;-56
2022/08/29 05:07:00;;;;;;;33.42;19.85;;;;;;;17.01;92.21;97675.00;10333236;28;20077;-56
2022/08/29 05:11:59;;;;;;;30.90;20.50;;;;;;;17.14;91.82;97675.47;10316638;28;20087;-56
2022/08/29 05:16:58;;;;;;;40.65;21.05;;;;;;;16.99;92.05;97679.41;10340711;28;20053;-56
2022/08/29 05:21:57;;;;;;;101.60;27.98;;;;;;;17.19;92.12;97681.47;10334693;28;20029;-56
2022/08/29 05:26:57;;;;;;;103.95;28.20;;;;;;;17.44;91.69;97686.00;10334905;28;20080;-56
2022/08/29 05:31:55;;;;;;;26.10;20.27;;;;;;;17.77;90.54;97686.75;10335058;28;20479;-56
2022/08/29 05:36:54;;;;;;;27.48;19.38;;;;;;;18.09;89.86;97690.16;10333379;28;20410;-56
2022/08/29 05:41:54;;;;;;;;;;;;;;;18.40;88.21;97687.38;10334480;28;20042;-56
2022/08/29 05:46:53;;;;;;;25.63;19.42;;;;;;;18.68;86.69;97697.81;10333963;28;20382;-56
2022/08/29 05:51:54;;;;;;;32.72;18.85;;;;;;;19.01;85.65;97694.91;10332073;28;20556;-56
2022/08/29 05:56:53;;;;;;;37.95;19.25;;;;;;;19.30;84.58;97693.00;10320844;28;20075;-56
2022/08/29 06:01:52;;;;;;;45.83;19.02;;;;;;;19.50;83.27;97682.59;10329428;28;20045;-56
2022/08/29 06:06:51;;;;;;;36.65;19.05;;;;;;;19.83;82.99;97696.25;10328305;28;20067;-56
2022/08/29 06:11:56;;;;;;;27.95;18.20;;;;;;;20.12;81.68;97691.63;10325244;28;20495;-56
2022/08/29 06:16:55;;;;;;;28.42;19.10;;;;;;;20.38;80.00;97687.91;10332903;28;20874;-56
2022/08/29 06:21:54;;;;;;;24.98;16.60;;;;;;;20.58;79.24;97700.25;10330796;28;20124;-56
2022/08/29 06:26:53;;;;;;;21.38;16.45;;;;;;;20.80;78.50;97704.66;10332222;28;20065;-56
2022/08/29 06:31:54;;;;;;;24.98;17.60;;;;;;;20.79;77.55;97703.75;10331907;28;20060;-56
2022/08/29 06:36:53;;;;;;;24.10;16.88;;;;;;;20.92;77.28;97696.19;10331654;28;20079;-56
2022/08/29 06:41:52;;;;;;;25.27;16.35;;;;;;;21.09;77.29;97709.50;10331099;28;20080;-56
2022/08/29 06:46:51;;;;;;;26.67;15.27;;;;;;;21.24;75.84;97717.69;10331199;28;20068;-56
2022/08/29 06:51:53;;;;;;;20.75;14.23;;;;;;;21.36;74.11;97708.34;10330127;28;20103;-56
2022/08/29 06:56:52;;;;;;;23.65;13.57;;;;;;;21.48;73.55;97715.75;10329837;28;20084;-56
2022/08/29 07:01:54;;;;;;;19.83;13.40;;;;;;;21.77;73.06;97709.09;10332114;28;20076;-56
2022/08/29 07:06:53;;;;;;;19.38;12.38;;;;;;;22.12;70.85;97719.81;10348470;28;20076;-56
2022/08/29 07:11:52;;;;;;;21.58;13.10;;;;;;;22.33;68.59;97718.75;10338382;28;20041;-56
2022/08/29 07:16:51;;;;;;;21.30;12.25;;;;;;;22.51;67.07;97726.72;10337898;28;20100;-56
2022/08/29 07:21:53;;;;;;;24.67;12.55;;;;;;;22.67;66.02;97732.97;10338304;28;20025;-57
2022/08/29 07:26:52;;;;;;;17.20;10.55;;;;;;;23.04;64.53;97740.81;10327719;28;20065;-56
2022/08/29 07:31:52;;;;;;;19.05;10.95;;;;;;;23.26;63.46;97735.28;10292003;28;20073;-57
2022/08/29 07:36:51;;;;;;;14.93;11.48;;;;;;;23.63;62.94;97745.66;10305999;28;20072;-56
2022/08/29 07:41:50;;;;;;;18.33;11.07;;;;;;;23.87;61.30;97737.31;10331795;28;20030;-56
2022/08/29 07:46:54;;;;;;;14.18;9.38;;;;;;;24.04;59.55;97734.56;10331132;28;20103;-56
2022/08/29 07:51:54;;;;;;;18.17;10.48;;;;;;;24.25;58.69;97736.97;10331123;28;20068;-56
2022/08/29 07:56:53;;;;;;;16.52;9.70;;;;;;;24.47;57.84;97745.44;10331014;28;20764;-56
2022/08/29 08:01:52;;;;;;;15.43;10.57;;;;;;;24.73;57.97;97742.19;10329788;28;20495;-56
2022/08/29 08:06:51;;;;;;;16.80;11.50;;;;;;;25.03;58.04;97739.53;10330416;28;20510;-56
2022/08/29 08:11:50;;;;;;;19.02;10.43;;;;;;;25.37;57.58;97732.19;10329999;28;20076;-56
2022/08/29 08:16:49;;;;;;;16.30;11.52;;;;;;;25.65;57.43;97742.84;10329552;28;20047;-56
2022/08/29 08:21:48;;;;;;;14.68;10.25;;;;;;;25.87;55.96;97737.03;10327980;28;20049;-56
2022/08/29 08:26:48;;;;;;;16.48;11.40;;;;;;;25.99;54.50;97740.72;10328648;28;20068;-57
2022/08/29 08:31:49;;;;;;;22.20;10.98;;;;;;;25.97;53.70;97734.63;10329220;28;20097;-57
2022/08/29 08:36:49;;;;;;;15.00;10.85;;;;;;;26.08;53.99;97726.81;10329868;28;20091;-57
2022/08/29 08:42:05;;;;;;;17.10;11.00;;;;;;;26.22;53.89;97735.75;10336119;28;20088;-57
2022/08/29 08:47:07;;;;;;;15.50;10.95;;;;;;;26.44;52.47;97727.22;10338661;28;20081;-56
2022/08/29 08:52:15;;;;;;;20.55;12.15;;;;;;;26.56;52.39;97732.59;10338656;28;20076;-56
2022/08/29 08:57:14;;;;;;;14.93;10.97;;;;;;;26.72;52.11;97720.91;10338614;28;20105;-56
2022/08/29 09:02:35;;;;;;;24.20;11.77;;;;;;;26.93;52.58;97719.50;10337798;28;20328;-56
2022/08/29 09:07:59;;;;;;;16.85;11.07;;;;;;;27.08;50.53;97708.75;10334368;28;20458;-56
2022/08/29 09:13:10;;;;;;;14.23;10.48;;;;;;;27.05;50.31;97709.81;10337807;28;20069;-57
2022/08/29 09:18:22;;;;;;;14.43;11.05;;;;;;;27.14;49.60;97718.97;10336891;28;20064;-57
2022/08/29 09:23:44;;;;;;;11.23;9.90;;;;;;;27.22;48.07;97708.66;10331668;28;20077;-57
2022/08/29 09:28:44;;;;;;;14.55;9.50;;;;;;;27.59;46.71;97708.75;10335978;28;20099;-57
2022/08/29 09:33:51;;;;;;;18.08;10.35;;;;;;;27.96;46.38;97706.97;10336761;28;20060;-57
2022/08/29 09:38:50;;;;;;;15.30;10.00;;;;;;;28.00;46.23;97707.59;10337434;28;20080;-57
2022/08/29 09:43:51;;;;;;;14.63;9.65;;;;;;;28.02;45.55;97700.31;10335153;28;20041;-57
2022/08/29 09:49:14;;;;;;;15.70;10.32;;;;;;;28.12;44.59;97697.84;10335614;28;20725;-57
2022/08/29 09:54:30;;;;;;;13.02;9.10;;;;;;;28.53;44.07;97700.13;10335510;28;20065;-57
2022/08/29 09:59:33;;;;;;;15.05;8.65;;;;;;;28.46;42.36;97688.22;10336523;28;20692;-57
2022/08/29 10:04:38;;;;;;;14.63;8.98;;;;;;;28.51;42.43;97678.03;10335391;28;20065;-56
2022/08/29 10:09:37;;;;;;;11.45;9.68;;;;;;;28.53;43.41;97677.94;10335405;28;20073;-57
2022/08/29 10:14:48;;;;;;;17.75;9.65;;;;;;;28.42;42.92;97663.56;10335789;28;20494;-56
2022/08/29 10:19:47;;;;;;;15.70;9.00;;;;;;;28.33;42.33;97655.38;10334263;28;20076;-57
2022/08/29 10:24:55;;;;;;;16.48;9.95;;;;;;;28.75;42.97;97661.16;10336188;28;20073;-56
2022/08/29 10:30:08;;;;;;;15.73;10.13;;;;;;;28.84;42.95;97657.78;10335771;28;21076;-56
2022/08/29 10:35:34;;;;;;;17.23;9.45;;;;;;;28.86;42.84;97647.81;10334695;28;20076;-56
2022/08/29 10:40:41;;;;;;;18.35;9.93;;;;;;;28.88;43.21;97648.56;10334315;28;20085;-56
2022/08/29 10:46:07;;;;;;;13.00;9.82;;;;;;;28.88;43.57;97637.88;10334539;28;20076;-56
2022/08/29 10:51:26;;;;;;;15.35;10.20;;;;;;;29.02;43.08;97634.13;10333813;28;20057;-56
2022/08/29 10:56:39;;;;;;;13.23;9.48;;;;;;;29.38;42.37;97619.69;10332750;28;20061;-57
2022/08/29 11:01:42;;;;;;;16.52;9.63;;;;;;;29.61;41.47;97625.03;10332050;28;20069;-56
2022/08/29 11:07:00;;;;;;;14.30;10.20;;;;;;;29.70;41.15;97624.28;10333412;28;20056;-56
2022/08/29 11:12:20;;;;;;;15.32;9.60;;;;;;;29.80;41.55;97611.84;10333513;28;20075;-55
2022/08/29 11:17:25;;;;;;;13.05;9.60;;;;;;;29.88;41.23;97598.75;10332490;28;20689;-57
2022/08/29 11:22:32;;;;;;;15.00;9.77;;;;;;;29.97;40.62;97577.53;10333728;28;20072;-56
2022/08/29 11:27:43;;;;;;;15.52;9.57;;;;;;;30.16;40.61;97575.00;10333120;28;20076;-58
2022/08/29 11:32:43;;;;;;;14.13;10.00;;;;;;;30.18;40.54;97573.06;10333141;28;20072;-56
2022/08/29 11:37:57;;;;;;;14.52;9.77;;;;;;;30.07;40.88;97565.94;10332683;28;20069;-56
2022/08/29 11:43:00;;;;;;;15.63;10.02;;;;;;;30.25;41.03;97571.56;10330229;28;20519;-57
2022/08/29 11:48:14;;;;;;;15.98;10.52;;;;;;;30.38;41.10;97573.22;10330316;28;20065;-57
2022/08/29 11:53:20;;;;;;;20.65;10.27;;;;;;;30.58;40.84;97567.03;10329963;28;20059;-56
2022/08/29 11:58:19;;;;;;;16.63;10.80;;;;;;;30.72;39.92;97564.00;10329135;28;20080;-58
2022/08/29 12:03:34;;;;;;;17.77;14.38;;;;;;;30.72;40.34;97565.84;10330155;28;20128;-57
2022/08/29 12:08:41;;;;;;;15.38;10.15;;;;;;;30.58;40.08;97575.06;10331651;28;20084;-57
2022/08/29 12:13:46;;;;;;;16.67;10.17;;;;;;;30.42;39.31;97577.34;10332277;28;20053;-57
2022/08/29 12:18:56;;;;;;;15.10;9.13;;;;;;;30.31;40.13;97584.44;10331858;28;20076;-57
2022/08/29 12:23:55;;;;;;;17.90;9.52;;;;;;;30.29;40.98;97570.31;10331854;28;20077;-57
2022/08/29 12:28:59;;;;;;;13.77;9.70;;;;;;;30.16;40.72;97572.34;10332342;28;20077;-57
2022/08/29 12:34:12;;;;;;;16.23;9.63;;;;;;;30.19;41.58;97581.94;10331675;28;20065;-57
2022/08/29 12:39:48;;;;;;;15.10;8.70;;;;;;;30.25;41.29;97568.88;10332364;28;20080;-57
2022/08/29 12:45:02;;;;;;;12.73;8.60;;;;;;;30.10;41.19;97551.47;10332467;28;20081;-56
2022/08/29 12:50:12;;;;;;;15.70;8.35;;;;;;;29.92;41.23;97546.66;10331059;28;20072;-56
2022/08/29 12:55:24;;;;;;;19.48;9.15;;;;;;;29.92;41.16;97540.47;10330681;28;20508;-56
2022/08/29 13:00:27;;;;;;;14.90;7.75;;;;;;;29.90;41.85;97556.63;10329115;28;20124;-56
2022/08/29 13:05:30;;;;;;;14.63;8.85;;;;;;;29.91;42.11;97563.69;10330465;28;20459;-57
2022/08/29 13:10:29;;;;;;;14.68;9.02;;;;;;;29.96;42.48;97574.00;10329665;28;20065;-56
2022/08/29 13:15:28;;;;;;;16.98;9.52;;;;;;;30.15;43.75;97583.19;10329908;28;20069;-56
2022/08/29 13:20:36;;;;;;;17.45;9.57;;;;;;;30.31;44.25;97588.94;10325560;28;20084;-56
2022/08/29 13:25:43;;;;;;;;;;;;;;;30.44;43.14;97578.06;10331023;28;20049;-57
2022/08/29 13:30:42;;;;;;;13.65;10.02;;;;;;;30.37;45.04;97572.34;10330391;28;19948;-57
2022/08/29 13:35:42;;;;;;;17.88;10.32;;;;;;;30.27;44.91;97577.63;10335800;28;20467;-57
2022/08/29 13:40:48;;;;;;;16.02;8.98;;;;;;;30.11;44.70;97571.88;10334555;28;20570;-56
2022/08/29 13:45:47;;;;;;;17.92;9.95;;;;;;;29.50;45.46;97557.22;10334301;28;20115;-56
2022/08/29 13:50:46;;;;;;;19.20;10.25;;;;;;;29.02;46.72;97546.81;10334511;28;20543;-57
2022/08/29 13:55:45;;;;;;;20.05;10.00;;;;;;;28.76;47.21;97553.34;10335019;28;20699;-57
2022/08/29 14:00:45;;;;;;;17.70;8.98;;;;;;;28.66;46.71;97559.41;10332920;28;20073;-57
2022/08/29 14:05:45;;;;;;;14.60;9.60;;;;;;;28.64;47.70;97553.31;10331539;28;20073;-56
2022/08/29 14:10:44;;;;;;;19.63;9.05;;;;;;;28.51;47.96;97554.41;10331588;28;20072;-57
2022/08/29 14:15:43;;;;;;;12.35;9.45;;;;;;;28.44;48.52;97556.69;10334356;28;20099;-56
2022/08/29 14:20:42;;;;;;;17.42;10.20;;;;;;;28.38;49.51;97562.47;10333490;28;20088;-57
2022/08/29 14:25:41;;;;;;;16.25;9.48;;;;;;;28.30;49.43;97562.22;10335350;28;20080;-57
2022/08/29 14:30:40;;;;;;;16.38;9.32;;;;;;;28.29;49.43;97568.53;10333111;28;20024;-56
2022/08/29 14:35:39;;;;;;;17.15;9.35;;;;;;;28.16;49.59;97558.78;10334693;28;20088;-57
2022/08/29 14:40:38;;;;;;;16.73;9.27;;;;;;;28.16;48.56;97552.59;10332889;28;20025;-57
2022/08/29 14:45:37;;;;;;;11.20;9.25;;;;;;;28.16;48.20;97563.28;10333462;28;20053;-57
2022/08/29 14:50:36;;;;;;;16.00;8.70;;;;;;;28.15;47.50;97554.44;10332024;28;20522;-57
2022/08/29 14:55:36;;;;;;;16.27;9.32;;;;;;;28.09;47.00;97556.72;10333611;28;20463;-57
2022/08/29 15:00:35;;;;;;;18.05;10.10;;;;;;;28.04;47.37;97551.69;10331817;28;20069;-57
2022/08/29 15:05:34;;;;;;;18.30;9.93;;;;;;;27.91;47.40;97535.75;10332903;28;20028;-56
2022/08/29 15:10:33;;;;;;;17.83;9.07;;;;;;;27.76;48.30;97537.75;10319847;28;20523;-56
2022/08/29 15:15:32;;;;;;;19.20;9.60;;;;;;;27.68;48.11;97521.50;10332794;28;20064;-57
2022/08/29 15:20:32;;;;;;;24.50;9.40;;;;;;;27.53;47.62;97538.59;10331033;28;20064;-56
2022/08/29 15:25:31;;;;;;;13.85;10.15;;;;;;;27.20;48.91;97543.56;10331595;28;20079;-57
2022/08/29 15:30:31;;;;;;;18.15;10.82;;;;;;;26.99;50.22;97548.63;10330456;28;20053;-57
2022/08/29 15:35:31;;;;;;;17.23;10.88;;;;;;;26.70;50.89;97548.00;10330409;28;20073;-57
2022/08/29 15:40:30;;;;;;;18.55;12.07;;;;;;;26.41;51.80;97555.31;10331591;28;20061;-57
2022/08/29 15:45:29;;;;;;;21.40;11.18;;;;;;;26.34;52.15;97556.69;10331481;28;20091;-57
2022/08/29 15:50:28;;;;;;;26.63;11.27;;;;;;;26.31;51.62;97554.25;10330571;28;20061;-57
2022/08/29 15:55:27;;;;;;;18.83;9.32;;;;;;;26.29;51.46;97558.81;10332074;28;20068;-57
2022/08/29 16:00:26;;;;;;;13.75;8.38;;;;;;;26.20;51.00;97554.13;10331397;28;20029;-56
2022/08/29 16:05:26;;;;;;;16.98;9.23;;;;;;;26.07;49.88;97562.06;10331539;28;20809;-57
2022/08/29 16:10:25;;;;;;;18.45;10.52;;;;;;;26.09;50.18;97562.78;10330716;28;20076;-57
2022/08/29 16:15:24;;;;;;;18.63;10.68;;;;;;;26.05;49.83;97559.50;10331011;28;20068;-57
2022/08/29 16:20:24;;;;;;;18.10;9.77;;;;;;;26.05;49.76;97553.34;10328538;28;20069;-56
2022/08/29 16:25:24;;;;;;;18.35;8.57;;;;;;;26.02;48.98;97553.50;10331187;28;20060;-57
2022/08/29 16:30:23;;;;;;;12.57;8.35;;;;;;;25.97;48.48;97548.50;10331004;28;20072;-57
2022/08/29 16:35:23;;;;;;;59.15;16.77;;;;;;;25.87;49.32;97545.63;10330340;28;20065;-57
2022/08/29 16:40:22;;;;;;;27.42;13.88;;;;;;;25.74;51.74;97550.06;10330695;28;20079;-57
2022/08/29 16:45:22;;;;;;;24.70;13.98;;;;;;;25.65;52.51;97555.97;10329871;28;20080;-58
2022/08/29 16:50:22;;;;;;;22.73;14.80;;;;;;;25.51;53.94;97552.38;10331153;28;20060;-57
2022/08/29 16:55:21;;;;;;;25.73;14.60;;;;;;;25.25;54.80;97548.75;10334278;28;20061;-56
2022/08/29 17:00:20;;;;;;;23.02;13.80;;;;;;;25.03;55.21;97553.69;10335133;28;20072;-57
2022/08/29 17:05:19;;;;;;;18.27;11.68;;;;;;;24.83;55.98;97558.44;10338962;28;20565;-57
2022/08/29 17:20:19;;;;;;;18.00;10.75;;;;;;;24.40;55.36;97549.56;10330880;28;20072;-57
2022/08/29 17:25:19;;;;;;;24.23;10.73;;;;;;;24.26;55.91;97547.75;10334465;28;20079;-55
2022/08/29 17:30:18;;;;;;;17.60;9.80;;;;;;;24.13;56.32;97552.06;10338148;28;20071;-56
2022/08/29 17:35:17;;;;;;;15.23;9.48;;;;;;;24.00;55.31;97560.72;10315196;28;20022;-56
2022/08/29 17:40:16;;;;;;;13.82;7.93;;;;;;;23.87;54.42;97564.19;10313413;28;20471;-55
2022/08/29 17:45:15;;;;;;;12.43;7.65;;;;;;;23.72;53.97;97563.25;10316739;28;20427;-56
2022/08/29 17:50:15;;;;;;;13.13;7.50;;;;;;;23.60;53.43;97565.66;10333037;28;20045;-57
2022/08/29 17:55:14;;;;;;;12.25;8.10;;;;;;;23.52;53.57;97575.00;10322017;28;20123;-57
2022/08/29 18:00:13;;;;;;;11.82;8.10;;;;;;;23.43;54.04;97584.28;10333825;28;20076;-56
2022/08/29 18:05:12;;;;;;;18.50;8.85;;;;;;;23.36;53.98;97597.00;10321158;28;20148;-57
2022/08/29 18:10:14;;;;;;;15.63;8.70;;;;;;;23.32;54.01;97584.00;10320546;28;20092;-57
2022/08/29 18:15:14;;;;;;;17.63;8.80;;;;;;;23.21;54.60;97574.03;10322055;28;20072;-56
2022/08/29 18:20:18;;;;;;;14.25;8.15;;;;;;;23.16;53.73;97586.66;10332530;28;20057;-56
2022/08/29 18:25:18;;;;;;;11.38;8.13;;;;;;;23.09;54.50;97591.44;10330335;28;20072;-56
2022/08/29 18:30:18;;;;;;;14.50;8.70;;;;;;;22.94;54.52;97589.63;10332725;28;20073;-56
2022/08/29 18:35:17;;;;;;;15.13;9.05;;;;;;;22.93;54.34;97611.72;10325925;28;20072;-56
2022/08/29 18:40:16;;;;;;;13.73;9.38;;;;;;;22.77;55.22;97607.25;10330572;28;20076;-56
2022/08/29 18:45:15;;;;;;;18.15;10.38;;;;;;;22.71;56.14;97612.81;10331197;28;20136;-56
2022/08/29 18:55:32;;;;;;;16.58;9.60;;;;;;;22.58;57.90;97617.03;10324693;28;20069;-56
2022/08/29 19:00:31;;;;;;;17.73;9.93;;;;;;;22.46;59.47;97622.94;10324280;28;20096;-56
2022/08/29 19:05:32;;;;;;;11.52;9.07;;;;;;;22.25;61.33;97617.84;10315898;28;20503;-56
2022/08/29 19:10:31;;;;;;;13.88;9.02;;;;;;;22.11;61.56;97622.97;10318534;28;20079;-56
2022/08/29 19:15:30;;;;;;;13.18;8.95;;;;;;;22.10;61.92;97629.16;10329865;28;20065;-56
2022/08/29 19:25:47;;;;;;;14.20;9.23;;;;;;;22.05;62.66;97633.81;10329819;28;20073;-56
2022/08/29 19:30:48;;;;;;;15.52;9.48;;;;;;;22.06;62.92;97646.09;10330117;28;20070;-56
2022/08/29 19:35:49;;;;;;;13.88;9.70;;;;;;;22.08;63.02;97644.22;10331115;28;20072;-56
2022/08/29 19:40:54;;;;;;;18.00;10.73;;;;;;;22.06;63.26;97632.88;10329822;28;20075;-56
2022/08/29 19:45:55;;;;;;;18.92;10.52;;;;;;;22.05;63.24;97639.97;10330183;28;20526;-56
2022/08/29 19:50:54;;;;;;;17.23;10.50;;;;;;;22.00;63.24;97638.50;10333344;28;20076;-56
2022/08/29 19:55:54;;;;;;;17.60;10.68;;;;;;;21.99;63.45;97648.19;10332932;28;20072;-56
2022/08/29 20:00:54;;;;;;;19.40;10.35;;;;;;;21.99;63.48;97660.53;10332850;28;20083;-56
2022/08/29 20:05:54;;;;;;;16.35;10.60;;;;;;;21.95;63.47;97660.66;10333144;28;20079;-56
2022/08/29 20:10:53;;;;;;;15.55;10.85;;;;;;;21.93;63.82;97657.22;10331760;28;20099;-56
2022/08/29 20:15:52;;;;;;;13.65;10.73;;;;;;;21.95;63.82;97655.38;10332052;28;20372;-56
2022/08/29 20:20:51;;;;;;;15.55;11.20;;;;;;;22.00;64.06;97664.91;10331977;28;20556;-56
2022/08/29 20:25:50;;;;;;;16.52;10.57;;;;;;;22.03;64.14;97664.75;10332387;28;20043;-56
2022/08/29 20:30:49;;;;;;;16.25;9.68;;;;;;;22.01;64.07;97661.31;10331572;28;20479;-56
2022/08/29 20:41:06;;;;;;;15.32;10.60;;;;;;;21.95;63.39;97679.16;10331511;28;20065;-55
2022/08/29 20:46:09;;;;;;;16.27;10.55;;;;;;;21.97;63.19;97672.03;10329663;28;20049;-55
2022/08/29 20:51:09;;;;;;;16.80;11.07;;;;;;;22.00;63.19;97675.47;10328106;28;20069;-56
2022/08/29 20:56:09;;;;;;;15.65;10.73;;;;;;;21.96;63.46;97672.94;10329048;28;20069;-55
2022/08/29 21:01:09;;;;;;;21.33;12.32;;;;;;;21.93;63.91;97688.94;10327156;28;20073;-56
2022/08/29 21:06:08;;;;;;;15.48;11.35;;;;;;;21.82;65.07;97685.94;10327874;28;20064;-56
2022/08/29 21:11:07;;;;;;;22.08;12.10;;;;;;;21.68;66.73;97685.75;10327753;28;20029;-56
2022/08/29 21:16:06;;;;;;;13.35;11.35;;;;;;;21.56;67.60;97689.81;10326503;28;20060;-56
2022/08/29 21:21:09;;;;;;;18.42;11.68;;;;;;;21.55;67.60;97683.69;10327103;28;20069;-56
2022/08/29 21:26:09;;;;;;;17.75;10.55;;;;;;;21.56;67.76;97689.81;10328037;28;20487;-56
2022/08/29 21:31:11;;;;;;;13.35;10.50;;;;;;;21.61;67.51;97687.81;10326082;28;20061;-56
2022/08/29 21:36:12;;;;;;;16.25;9.82;;;;;;;21.64;67.27;97692.09;10323906;28;20413;-56
2022/08/29 21:41:12;;;;;;;15.38;10.48;;;;;;;21.64;66.86;97681.53;10323832;28;20168;-56
2022/08/29 21:46:23;;;;;;;16.77;11.20;;;;;;;21.62;66.94;97678.13;10325820;28;20184;-56
2022/08/29 21:51:23;;;;;;;13.70;10.35;;;;;;;21.58;67.40;97685.31;10334676;28;20490;-56
2022/08/29 21:56:24;;;;;;;17.92;10.82;;;;;;;21.57;67.67;97690.66;10333023;28;20084;-56
2022/08/29 22:01:28;;;;;;;20.33;11.68;;;;;;;21.51;67.95;97686.53;10333321;28;20068;-56
2022/08/29 22:06:27;;;;;;;17.85;11.05;;;;;;;21.41;68.63;97687.91;10335009;28;20088;-56
2022/08/29 22:11:28;;;;;;;18.55;12.82;;;;;;;21.31;69.62;97698.00;10333619;28;20064;-56
2022/08/29 22:16:28;;;;;;;19.70;13.75;;;;;;;21.25;70.58;97708.84;10333330;28;20415;-57
2022/08/29 22:21:30;;;;;;;22.75;14.80;;;;;;;21.00;71.95;97715.16;10331948;28;20511;-57
2022/08/29 22:26:29;;;;;;;18.95;13.70;;;;;;;20.85;73.23;97715.84;10333921;28;20402;-57
2022/08/29 22:31:30;;;;;;;19.77;15.43;;;;;;;20.76;73.88;97718.88;10332631;28;20045;-57
2022/08/29 22:36:29;;;;;;;21.30;13.82;;;;;;;20.62;74.41;97712.41;10332897;28;20076;-55
2022/08/29 22:41:28;;;;;;;18.17;13.38;;;;;;;20.61;74.36;97725.63;10332286;28;20029;-55
2022/08/29 22:46:28;;;;;;;17.33;12.95;;;;;;;20.61;74.75;97725.63;10332442;28;20077;-57
2022/08/29 22:51:27;;;;;;;16.40;12.43;;;;;;;20.57;74.51;97732.84;10331600;28;20521;-57
2022/08/29 22:56:26;;;;;;;18.00;13.68;;;;;;;20.55;74.39;97726.75;10332259;28;20065;-57
2022/08/29 23:01:27;;;;;;;15.38;12.13;;;;;;;20.54;74.19;97735.59;10330046;28;20025;-55
2022/08/29 23:06:27;;;;;;;18.85;11.88;;;;;;;20.54;74.29;97730.34;10331932;28;20092;-57
2022/08/29 23:11:27;;;;;;;14.70;12.60;;;;;;;20.53;74.52;97738.28;10331387;28;20078;-58
2022/08/29 23:16:26;;;;;;;16.83;13.23;;;;;;;20.41;74.74;97729.97;10330655;28;20069;-57
2022/08/29 23:21:26;;;;;;;18.02;13.20;;;;;;;20.40;74.82;97733.53;10329464;28;20069;-55
2022/08/29 23:26:26;;;;;;;18.73;13.68;;;;;;;20.34;75.15;97744.28;10330516;28;20053;-55
2022/08/29 23:31:25;;;;;;;18.42;13.40;;;;;;;20.29;75.38;97741.00;10330625;28;20501;-55